Rubcovsk, Russia
Current Conditions -  °F | °C
As of 5:30 PM on Wednesday 28 Jan 2015 (Local Time) from UASS Reporting Station
Clear Clear  
Wind Chill: -7°   Ceiling: Unl
Heat Index:   Visibility: 6mi
Dew Point: -6°   Wind: 7mph
Humidity: 61%   Direction: 160°SSE
Pressure: 30.65"   Gusts: NA
Location:  51.53°N, 81.2°E
Report Text: UASS 281030Z 16003MPS CAVOK M15/M21 Q1038 R08/82//45 NOSIG RMKQFE757/1010
Loading
Personal Weather Stations






























Interactive Weather Map New forecast layout! Learn more

10-Day Weather Forecast

Advertisements
Track Severe Weather on mobile